createdAt,value
2018-12-13T00:00:55.073Z,5.40
2018-12-13T00:01:58.450Z,5.40
2018-12-13T00:03:01.847Z,5.40
2018-12-13T00:04:05.277Z,5.30
2018-12-13T00:05:08.671Z,5.40
2018-12-13T00:06:12.065Z,5.40
2018-12-13T00:07:15.442Z,5.40
2018-12-13T00:08:18.849Z,5.40
2018-12-13T00:09:22.232Z,5.50
2018-12-13T00:10:25.607Z,5.40
2018-12-13T00:11:29.087Z,5.50
2018-12-13T00:12:32.463Z,5.50
2018-12-13T00:13:35.849Z,5.50
2018-12-13T00:14:39.218Z,5.50
2018-12-13T00:15:42.586Z,5.60
2018-12-13T00:16:45.970Z,5.60
2018-12-13T00:17:49.370Z,5.60
2018-12-13T00:18:53.446Z,5.60
2018-12-13T00:19:56.828Z,5.60
2018-12-13T00:21:00.216Z,5.70
2018-12-13T00:22:03.681Z,5.70
2018-12-13T00:23:07.055Z,5.70
2018-12-13T00:24:10.438Z,5.70
2018-12-13T00:25:13.811Z,5.70
2018-12-13T00:26:17.190Z,5.70
2018-12-13T00:27:20.581Z,5.70
2018-12-13T00:28:24.039Z,5.70
2018-12-13T00:29:27.429Z,5.70
2018-12-13T00:30:30.794Z,5.80
2018-12-13T00:31:34.170Z,5.80
2018-12-13T00:32:37.555Z,5.80
2018-12-13T00:33:40.923Z,5.80
2018-12-13T00:34:44.307Z,5.80
2018-12-13T00:35:47.682Z,5.80
2018-12-13T00:36:51.064Z,5.70
2018-12-13T00:37:54.443Z,5.70
2018-12-13T00:38:57.815Z,5.80
2018-12-13T00:40:01.201Z,5.70
2018-12-13T00:41:04.583Z,5.80
2018-12-13T00:42:07.968Z,5.70
2018-12-13T00:43:11.343Z,5.80
2018-12-13T00:44:14.723Z,5.70
2018-12-13T00:45:18.130Z,5.80
2018-12-13T00:46:21.554Z,5.80
2018-12-13T00:47:25.019Z,5.80
2018-12-13T00:48:28.392Z,5.80
2018-12-13T00:49:31.753Z,5.80
2018-12-13T00:50:35.162Z,5.80
2018-12-13T00:51:38.612Z,5.80
2018-12-13T00:52:42.022Z,5.80
2018-12-13T00:53:45.505Z,5.80
2018-12-13T00:54:48.931Z,5.80
2018-12-13T00:55:52.339Z,5.80
2018-12-13T00:56:55.749Z,5.80
2018-12-13T00:57:59.127Z,5.80
2018-12-13T00:59:02.486Z,5.80
2018-12-13T01:00:06.453Z,5.80
2018-12-13T01:01:09.858Z,5.80
2018-12-13T01:02:13.230Z,5.80
2018-12-13T01:03:16.611Z,5.80
2018-12-13T01:04:19.996Z,5.80
2018-12-13T01:05:23.357Z,5.70
2018-12-13T01:06:27.567Z,5.70
2018-12-13T01:07:30.937Z,5.70
2018-12-13T01:08:34.316Z,5.70
2018-12-13T01:09:37.687Z,5.70
2018-12-13T01:10:41.047Z,5.70
2018-12-13T01:11:44.442Z,5.70
2018-12-13T01:12:47.929Z,5.60
2018-12-13T01:13:51.296Z,5.60
2018-12-13T01:14:54.677Z,5.60
2018-12-13T01:15:58.085Z,5.60
2018-12-13T01:17:01.482Z,5.60
2018-12-13T01:18:04.877Z,5.60
2018-12-13T01:19:08.244Z,5.60
2018-12-13T01:20:11.614Z,5.60
2018-12-13T01:21:20.385Z,5.60
2018-12-13T01:22:20.384Z,5.70
2018-12-13T01:23:23.763Z,5.60
2018-12-13T01:24:27.194Z,5.60
2018-12-13T01:25:30.599Z,5.60
2018-12-13T01:26:33.970Z,5.70
2018-12-13T01:27:37.378Z,5.70
2018-12-13T01:28:40.862Z,5.70
2018-12-13T01:29:44.247Z,5.70
2018-12-13T01:30:47.630Z,5.70
2018-12-13T01:31:51.045Z,5.70
2018-12-13T01:32:54.454Z,5.70
2018-12-13T01:33:57.831Z,5.70
2018-12-13T01:35:01.214Z,5.70
2018-12-13T01:36:04.686Z,5.70
2018-12-13T01:37:08.191Z,5.70
2018-12-13T01:38:11.577Z,5.70
2018-12-13T01:39:14.941Z,5.70
2018-12-13T01:40:18.330Z,5.70
2018-12-13T01:41:21.693Z,5.70
2018-12-13T01:42:25.067Z,5.70
2018-12-13T01:43:30.441Z,5.80
2018-12-13T01:44:33.818Z,5.70
2018-12-13T01:45:37.182Z,5.70
2018-12-13T01:46:40.575Z,5.70
2018-12-13T01:47:43.967Z,5.70
2018-12-13T01:48:47.393Z,5.70
2018-12-13T01:49:50.791Z,5.70
2018-12-13T01:50:54.154Z,5.70
2018-12-13T01:51:57.526Z,5.70
2018-12-13T01:53:00.907Z,5.70
2018-12-13T01:54:04.288Z,5.70
2018-12-13T01:55:07.678Z,5.70
2018-12-13T01:56:11.059Z,5.60
2018-12-13T01:57:14.453Z,5.60
2018-12-13T01:58:17.854Z,5.60
2018-12-13T01:59:21.219Z,5.60
2018-12-13T02:00:24.606Z,5.50
2018-12-13T02:01:27.986Z,5.50
2018-12-13T02:02:31.379Z,5.50
2018-12-13T02:03:34.746Z,5.50
2018-12-13T02:04:38.124Z,5.50
2018-12-13T02:05:41.486Z,5.40
2018-12-13T02:06:44.898Z,5.50
2018-12-13T02:07:48.317Z,5.40
2018-12-13T02:08:51.681Z,5.40
2018-12-13T02:09:55.047Z,5.40
2018-12-13T02:10:58.431Z,5.40
2018-12-13T02:12:01.805Z,5.40
2018-12-13T02:13:05.233Z,5.40
2018-12-13T02:14:08.607Z,5.30
2018-12-13T02:15:12.002Z,5.30
2018-12-13T02:16:15.415Z,5.30
2018-12-13T02:17:18.795Z,5.20
2018-12-13T02:18:22.214Z,5.20
2018-12-13T02:19:25.579Z,5.20
2018-12-13T02:20:28.982Z,5.20
2018-12-13T02:21:32.351Z,5.20
2018-12-13T02:22:35.736Z,5.20
2018-12-13T02:23:39.130Z,5.10
2018-12-13T02:24:42.526Z,5.10
2018-12-13T02:25:45.929Z,5.10
2018-12-13T02:26:49.298Z,5.10
2018-12-13T02:27:52.719Z,5.10
2018-12-13T02:28:56.139Z,5.10
2018-12-13T02:29:59.534Z,5.10
2018-12-13T02:31:02.930Z,5.10
2018-12-13T02:32:06.343Z,5.10
2018-12-13T02:33:09.816Z,5.10
2018-12-13T02:34:13.242Z,5.10
2018-12-13T02:35:16.629Z,5.10
2018-12-13T02:36:19.993Z,5.10
2018-12-13T02:37:23.384Z,5.00
2018-12-13T02:38:26.823Z,5.00
2018-12-13T02:39:30.221Z,5.00
2018-12-13T02:40:33.603Z,5.00
2018-12-13T02:41:36.987Z,5.00
2018-12-13T02:42:40.383Z,5.00
2018-12-13T02:43:43.770Z,5.00
2018-12-13T02:44:47.275Z,5.00
2018-12-13T02:45:50.654Z,5.00
2018-12-13T02:46:54.247Z,5.00
2018-12-13T02:47:57.630Z,5.00
2018-12-13T02:49:07.991Z,5.00
2018-12-13T02:50:11.398Z,5.00
2018-12-13T02:51:14.774Z,5.00
2018-12-13T02:52:18.184Z,5.00
2018-12-13T02:53:21.565Z,5.00
2018-12-13T02:54:24.945Z,5.00
2018-12-13T02:55:28.346Z,5.00
2018-12-13T02:56:31.753Z,5.00
2018-12-13T02:57:35.151Z,5.00
2018-12-13T02:58:38.538Z,5.00
2018-12-13T02:59:41.931Z,5.00
2018-12-13T03:00:45.326Z,5.00
2018-12-13T03:01:48.691Z,5.00
2018-12-13T03:02:52.054Z,5.00
2018-12-13T03:03:55.432Z,4.90
2018-12-13T03:04:58.817Z,4.90
2018-12-13T03:06:02.245Z,4.90
2018-12-13T03:07:05.606Z,4.90
2018-12-13T03:08:08.982Z,4.90
2018-12-13T03:09:12.382Z,4.90
2018-12-13T03:10:15.779Z,4.90
2018-12-13T03:11:19.177Z,4.90
2018-12-13T03:12:22.551Z,4.80
2018-12-13T03:13:26.147Z,4.80
2018-12-13T03:14:29.524Z,4.80
2018-12-13T03:15:32.907Z,4.80
2018-12-13T03:16:36.301Z,4.80
2018-12-13T03:17:39.675Z,4.80
2018-12-13T03:18:43.064Z,4.80
2018-12-13T03:19:46.446Z,4.80
2018-12-13T03:20:49.808Z,4.80
2018-12-13T03:21:53.227Z,4.80
2018-12-13T03:22:56.617Z,4.80
2018-12-13T03:24:00.099Z,4.70
2018-12-13T03:25:03.471Z,4.70
2018-12-13T03:26:06.848Z,4.70
2018-12-13T03:27:10.221Z,4.70
2018-12-13T03:28:13.607Z,4.70
2018-12-13T03:29:16.971Z,4.70
2018-12-13T03:30:20.368Z,4.60
2018-12-13T03:31:23.753Z,4.60
2018-12-13T03:32:27.169Z,4.60
2018-12-13T03:33:30.535Z,4.60
2018-12-13T03:34:33.928Z,4.60
2018-12-13T03:35:37.317Z,4.60
2018-12-13T03:36:40.698Z,4.60
2018-12-13T03:37:44.100Z,4.60
2018-12-13T03:38:47.463Z,4.60
2018-12-13T03:39:50.849Z,4.60
2018-12-13T03:40:54.223Z,4.60
2018-12-13T03:41:57.627Z,4.60
2018-12-13T03:43:01.019Z,4.60
2018-12-13T03:44:04.872Z,4.60
2018-12-13T03:45:08.370Z,4.60
2018-12-13T03:46:11.743Z,4.60
2018-12-13T03:47:15.119Z,4.60
2018-12-13T03:48:18.510Z,4.60
2018-12-13T03:49:21.873Z,4.60
2018-12-13T03:50:25.307Z,4.60
2018-12-13T03:51:28.679Z,4.60
2018-12-13T03:52:32.081Z,4.60
2018-12-13T03:53:35.479Z,4.60
2018-12-13T03:54:38.913Z,4.60
2018-12-13T03:55:42.284Z,4.60
2018-12-13T03:56:45.669Z,4.60
2018-12-13T03:57:49.043Z,4.60
2018-12-13T03:58:52.422Z,4.60
2018-12-13T03:59:55.803Z,4.60
2018-12-13T04:00:59.212Z,4.60
2018-12-13T04:02:02.713Z,4.60
2018-12-13T04:03:06.078Z,4.60
2018-12-13T04:04:09.486Z,4.60
2018-12-13T04:05:12.891Z,4.60
2018-12-13T04:06:16.262Z,4.60
2018-12-13T04:07:19.664Z,4.60
2018-12-13T04:08:23.047Z,4.60
2018-12-13T04:09:26.445Z,4.60
2018-12-13T04:10:29.850Z,4.60
2018-12-13T04:11:33.213Z,4.50
2018-12-13T04:12:36.667Z,4.50
2018-12-13T04:13:40.055Z,4.50
2018-12-13T04:14:43.438Z,4.50
2018-12-13T04:15:46.938Z,4.50
2018-12-13T04:16:50.315Z,4.50
2018-12-13T04:17:53.854Z,4.50
2018-12-13T04:18:57.233Z,4.50
2018-12-13T04:20:00.614Z,4.40
2018-12-13T04:21:04.032Z,4.40
2018-12-13T04:22:07.410Z,4.40
2018-12-13T04:23:10.830Z,4.40
2018-12-13T04:24:14.208Z,4.40
2018-12-13T04:25:17.589Z,4.40
2018-12-13T04:26:20.966Z,4.40
2018-12-13T04:27:24.334Z,4.30
2018-12-13T04:28:27.704Z,4.30
2018-12-13T04:29:31.087Z,4.30
2018-12-13T04:30:34.493Z,4.30
2018-12-13T04:31:37.858Z,4.30
2018-12-13T04:32:41.238Z,4.30
2018-12-13T04:33:44.607Z,4.30
2018-12-13T04:34:47.995Z,4.30
2018-12-13T04:35:51.383Z,4.30
2018-12-13T04:36:54.758Z,4.30
2018-12-13T04:37:58.135Z,4.30
2018-12-13T04:39:01.513Z,4.20
2018-12-13T04:40:04.922Z,4.30
2018-12-13T04:41:08.328Z,4.30
2018-12-13T04:42:11.703Z,4.30
2018-12-13T04:43:15.079Z,4.30
2018-12-13T04:44:18.463Z,4.30
2018-12-13T04:45:21.869Z,4.30
2018-12-13T04:46:25.258Z,4.20
2018-12-13T04:47:28.642Z,4.20
2018-12-13T04:48:32.015Z,4.20
2018-12-13T04:49:35.409Z,4.20
2018-12-13T04:50:38.778Z,4.20
2018-12-13T04:51:42.207Z,4.20
2018-12-13T04:52:45.607Z,4.20
2018-12-13T04:53:48.992Z,4.20
2018-12-13T04:54:52.354Z,4.20
2018-12-13T04:55:55.726Z,4.20
2018-12-13T04:56:59.154Z,4.30
2018-12-13T04:58:02.602Z,4.30
2018-12-13T04:59:05.970Z,4.30
2018-12-13T05:00:09.355Z,4.30
2018-12-13T05:01:12.759Z,4.20
2018-12-13T05:02:16.168Z,4.20
2018-12-13T05:03:19.546Z,4.30
2018-12-13T05:04:22.948Z,4.30
2018-12-13T05:05:26.343Z,4.30
2018-12-13T05:06:29.752Z,4.30
2018-12-13T05:07:33.153Z,4.20
2018-12-13T05:08:36.598Z,4.20
2018-12-13T05:09:40.002Z,4.30
2018-12-13T05:10:51.070Z,4.20
2018-12-13T05:11:54.479Z,4.20
2018-12-13T05:12:57.927Z,4.20
2018-12-13T05:14:01.314Z,4.20
2018-12-13T05:15:05.004Z,4.20
2018-12-13T05:16:08.392Z,4.20
2018-12-13T05:17:11.778Z,4.10
2018-12-13T05:18:15.219Z,4.10
2018-12-13T05:19:18.634Z,4.10
2018-12-13T05:20:22.010Z,4.10
2018-12-13T05:21:25.394Z,4.20
2018-12-13T05:22:28.795Z,4.20
2018-12-13T05:23:32.185Z,4.10
2018-12-13T05:24:35.569Z,4.20
2018-12-13T05:25:38.977Z,4.20
2018-12-13T05:26:42.349Z,4.10
2018-12-13T05:27:45.753Z,4.10
2018-12-13T05:28:49.166Z,4.10
2018-12-13T05:29:52.555Z,4.10
2018-12-13T05:30:56.110Z,4.10
2018-12-13T05:31:59.487Z,4.10
2018-12-13T05:33:02.875Z,4.10
2018-12-13T05:34:06.284Z,4.10
2018-12-13T05:35:09.666Z,4.10
2018-12-13T05:36:13.054Z,4.10
2018-12-13T05:37:16.442Z,4.10
2018-12-13T05:38:19.834Z,4.10
2018-12-13T05:39:23.251Z,4.10
2018-12-13T05:40:26.651Z,4.10
2018-12-13T05:41:30.089Z,4.10
2018-12-13T05:42:33.522Z,4.10
2018-12-13T05:43:36.897Z,4.10
2018-12-13T05:44:40.293Z,4.10
2018-12-13T05:45:43.696Z,4.10
2018-12-13T05:46:47.138Z,4.10
2018-12-13T05:47:50.583Z,4.10
2018-12-13T05:48:54.615Z,4.10
2018-12-13T05:49:58.173Z,4.10
2018-12-13T05:51:01.564Z,4.10
2018-12-13T05:52:04.941Z,4.20
2018-12-13T05:53:08.342Z,4.10
2018-12-13T05:54:11.738Z,4.20
2018-12-13T05:55:15.150Z,4.20
2018-12-13T05:56:18.530Z,4.20
2018-12-13T05:57:22.399Z,4.20
2018-12-13T05:58:25.786Z,4.20
2018-12-13T05:59:29.178Z,4.20
2018-12-13T06:00:32.760Z,4.20
2018-12-13T06:01:36.157Z,4.20
2018-12-13T06:02:39.558Z,4.20
2018-12-13T06:03:42.939Z,4.20
2018-12-13T06:04:46.314Z,4.10
2018-12-13T06:05:50.098Z,4.10
2018-12-13T06:06:53.732Z,4.10
2018-12-13T06:07:57.116Z,4.10
2018-12-13T06:09:00.503Z,4.10
2018-12-13T06:10:04.168Z,4.10
2018-12-13T06:11:07.595Z,4.10
2018-12-13T06:12:10.992Z,4.10
2018-12-13T06:13:14.374Z,4.10
2018-12-13T06:14:17.752Z,4.10
2018-12-13T06:15:21.126Z,4.00
2018-12-13T06:16:24.531Z,4.00
2018-12-13T06:17:27.911Z,4.00
2018-12-13T06:18:31.302Z,3.90
2018-12-13T06:19:34.717Z,3.90
2018-12-13T06:20:38.108Z,3.90
2018-12-13T06:21:41.501Z,3.90
2018-12-13T06:22:44.874Z,3.90
2018-12-13T06:23:48.268Z,3.90
2018-12-13T06:24:51.673Z,3.90
2018-12-13T06:25:55.056Z,3.80
2018-12-13T06:26:58.450Z,3.80
2018-12-13T06:28:01.827Z,3.80
2018-12-13T06:29:05.290Z,3.80
2018-12-13T06:30:08.674Z,3.80
2018-12-13T06:31:12.058Z,3.80
2018-12-13T06:32:15.461Z,3.80
2018-12-13T06:33:24.658Z,3.80
2018-12-13T06:34:24.307Z,3.80
2018-12-13T06:35:27.698Z,3.80
2018-12-13T06:36:31.077Z,3.80
2018-12-13T06:37:34.503Z,3.80
2018-12-13T06:38:37.878Z,3.80
2018-12-13T06:39:41.312Z,3.90
2018-12-13T06:40:44.718Z,3.90
2018-12-13T06:41:48.091Z,3.80
2018-12-13T06:42:51.535Z,3.80
2018-12-13T06:43:55.019Z,3.80
2018-12-13T06:44:58.443Z,3.80
2018-12-13T06:46:01.842Z,3.80
2018-12-13T06:47:05.233Z,3.80
2018-12-13T06:48:08.654Z,3.80
2018-12-13T06:49:12.229Z,3.80
2018-12-13T06:50:15.627Z,3.80
2018-12-13T06:51:20.156Z,3.80
2018-12-13T06:52:23.751Z,3.80
2018-12-13T06:53:27.150Z,3.80
2018-12-13T06:54:30.542Z,3.80
2018-12-13T06:55:33.939Z,3.80
2018-12-13T06:56:37.349Z,3.80
2018-12-13T06:57:40.767Z,3.70
2018-12-13T06:58:44.178Z,3.70
2018-12-13T06:59:47.552Z,3.80
2018-12-13T07:00:50.985Z,3.80
2018-12-13T07:01:54.379Z,3.70
2018-12-13T07:02:57.802Z,3.70
2018-12-13T07:04:01.213Z,3.70
2018-12-13T07:05:04.639Z,3.70
2018-12-13T07:06:08.019Z,3.70
2018-12-13T07:07:11.578Z,3.70
2018-12-13T07:08:14.958Z,3.70
2018-12-13T07:09:18.386Z,3.70
2018-12-13T07:10:21.793Z,3.70
2018-12-13T07:11:25.323Z,3.70
2018-12-13T07:12:28.713Z,3.70
2018-12-13T07:13:32.338Z,3.70
2018-12-13T07:14:35.761Z,3.70
2018-12-13T07:15:39.132Z,3.70
2018-12-13T07:16:42.627Z,3.60
2018-12-13T07:17:46.002Z,3.60
2018-12-13T07:18:49.905Z,3.60
2018-12-13T07:19:58.811Z,3.70
2018-12-13T07:21:02.226Z,3.70
2018-12-13T07:22:05.598Z,3.70
2018-12-13T07:23:09.014Z,3.70
2018-12-13T07:24:12.438Z,3.70
2018-12-13T07:25:15.870Z,3.70
2018-12-13T07:26:19.263Z,3.70
2018-12-13T07:27:22.641Z,3.70
2018-12-13T07:28:26.287Z,3.80
2018-12-13T07:29:29.698Z,3.80
2018-12-13T07:30:33.098Z,3.70
2018-12-13T07:31:36.502Z,3.70
2018-12-13T07:32:39.906Z,3.80
2018-12-13T07:33:43.334Z,3.80
2018-12-13T07:34:46.707Z,3.80
2018-12-13T07:35:50.163Z,3.80
2018-12-13T07:36:53.542Z,3.80
2018-12-13T07:37:56.954Z,3.80
2018-12-13T07:39:00.341Z,3.80
2018-12-13T07:40:03.772Z,3.80
2018-12-13T07:41:07.200Z,3.70
2018-12-13T07:42:10.619Z,3.80
2018-12-13T07:43:13.973Z,3.70
2018-12-13T07:44:17.380Z,3.70
2018-12-13T07:45:20.791Z,3.70
2018-12-13T07:46:24.210Z,3.70
2018-12-13T07:47:27.571Z,3.70
2018-12-13T07:48:30.942Z,3.70
2018-12-13T07:49:34.322Z,3.70
2018-12-13T07:50:37.693Z,3.70
2018-12-13T07:51:41.077Z,3.70
2018-12-13T07:52:44.467Z,3.70
2018-12-13T07:53:47.888Z,3.70
2018-12-13T07:54:51.270Z,3.70
2018-12-13T07:55:54.653Z,3.70
2018-12-13T07:56:58.053Z,3.70
2018-12-13T07:58:02.356Z,3.70
2018-12-13T07:59:05.858Z,3.70
2018-12-13T08:00:09.570Z,3.70
2018-12-13T08:01:13.032Z,3.70
2018-12-13T08:02:16.413Z,3.70
2018-12-13T08:03:19.808Z,3.60
2018-12-13T08:04:23.210Z,3.60
2018-12-13T08:05:26.603Z,3.60
2018-12-13T08:06:30.004Z,3.60
2018-12-13T08:07:33.423Z,3.60
2018-12-13T08:08:36.795Z,3.60
2018-12-13T08:09:40.168Z,3.60
2018-12-13T08:10:43.551Z,3.60
2018-12-13T08:11:46.927Z,3.60
2018-12-13T08:12:50.330Z,3.50
2018-12-13T08:13:53.718Z,3.60
2018-12-13T08:14:57.124Z,3.60
2018-12-13T08:16:00.524Z,3.60
2018-12-13T08:17:03.907Z,3.60
2018-12-13T08:18:07.363Z,3.60
2018-12-13T08:19:10.782Z,3.60
2018-12-13T08:20:14.571Z,3.60
2018-12-13T08:21:18.035Z,3.70
2018-12-13T08:22:21.410Z,3.60
2018-12-13T08:23:24.822Z,3.60
2018-12-13T08:24:28.202Z,3.70
2018-12-13T08:25:31.627Z,3.70
2018-12-13T08:26:35.026Z,3.70
2018-12-13T08:27:38.406Z,3.70
2018-12-13T08:28:41.793Z,3.70
2018-12-13T08:29:45.176Z,3.70
2018-12-13T08:30:48.559Z,3.80
2018-12-13T08:31:51.933Z,3.80
2018-12-13T08:32:55.330Z,3.80
2018-12-13T08:33:58.704Z,3.80
2018-12-13T08:35:02.097Z,3.80
2018-12-13T08:36:05.565Z,3.80
2018-12-13T08:37:08.942Z,3.90
2018-12-13T08:38:12.310Z,3.90
2018-12-13T08:39:15.720Z,3.90
2018-12-13T08:40:19.102Z,3.90
2018-12-13T08:41:22.482Z,3.90
2018-12-13T08:42:25.850Z,3.90
2018-12-13T08:43:29.218Z,3.90
2018-12-13T08:44:32.617Z,3.90
2018-12-13T08:45:36.060Z,3.90
2018-12-13T08:46:39.462Z,3.90
2018-12-13T08:47:42.851Z,3.90
2018-12-13T08:48:46.272Z,3.90
2018-12-13T08:49:49.690Z,4.00
2018-12-13T08:50:54.273Z,4.00
2018-12-13T08:51:57.963Z,4.00
2018-12-13T08:53:01.365Z,4.00
2018-12-13T08:54:04.798Z,4.00
2018-12-13T08:55:08.190Z,4.00
2018-12-13T08:56:11.595Z,4.00
2018-12-13T08:57:15.014Z,4.00
2018-12-13T08:58:18.416Z,4.00
2018-12-13T08:59:21.806Z,4.00
2018-12-13T09:00:25.218Z,4.10
2018-12-13T09:01:28.624Z,4.10
2018-12-13T09:02:31.995Z,4.10
2018-12-13T09:03:35.412Z,4.10
2018-12-13T09:04:38.826Z,4.10
2018-12-13T09:05:42.243Z,4.10
2018-12-13T09:06:45.626Z,4.10
2018-12-13T09:07:49.014Z,4.20
2018-12-13T09:08:52.435Z,4.20
2018-12-13T09:09:55.815Z,4.20
2018-12-13T09:10:59.234Z,4.20
2018-12-13T09:12:02.651Z,4.20
2018-12-13T09:13:06.050Z,4.20
2018-12-13T09:14:09.449Z,4.30
2018-12-13T09:15:12.839Z,4.30
2018-12-13T09:16:16.237Z,4.20
2018-12-13T09:17:19.610Z,4.20
2018-12-13T09:18:23.007Z,4.20
2018-12-13T09:19:26.910Z,4.20
2018-12-13T09:20:30.278Z,4.30
2018-12-13T09:21:33.680Z,4.30
2018-12-13T09:22:37.078Z,4.30
2018-12-13T09:23:40.452Z,4.30
2018-12-13T09:24:43.862Z,4.30
2018-12-13T09:25:47.255Z,4.30
2018-12-13T09:26:50.647Z,4.30
2018-12-13T09:27:54.014Z,4.30
2018-12-13T09:28:57.392Z,4.30
2018-12-13T09:30:00.794Z,4.30
2018-12-13T09:31:04.188Z,4.30
2018-12-13T09:32:07.590Z,4.40
2018-12-13T09:33:11.003Z,4.40
2018-12-13T09:34:14.387Z,4.40
2018-12-13T09:35:17.778Z,4.40
2018-12-13T09:36:21.211Z,4.40
2018-12-13T09:37:24.609Z,4.40
2018-12-13T09:38:27.979Z,4.50
2018-12-13T09:39:31.350Z,4.50
2018-12-13T09:40:34.779Z,4.50
2018-12-13T09:41:38.175Z,4.50
2018-12-13T09:42:41.558Z,4.50
2018-12-13T09:43:45.530Z,4.50
2018-12-13T09:44:49.049Z,4.60
2018-12-13T09:45:52.432Z,4.60
2018-12-13T09:46:55.823Z,4.50
2018-12-13T09:47:59.242Z,4.60
2018-12-13T09:49:02.618Z,4.60
2018-12-13T09:51:31.711Z,4.60
2018-12-13T09:52:35.132Z,4.60
2018-12-13T09:53:38.578Z,4.60
2018-12-13T09:54:41.947Z,4.60
2018-12-13T09:55:45.314Z,4.60
2018-12-13T09:56:48.718Z,4.60
2018-12-13T09:57:52.089Z,4.60
2018-12-13T09:58:55.516Z,4.60
2018-12-13T09:59:58.892Z,4.60
2018-12-13T10:01:02.265Z,4.60
2018-12-13T10:02:05.686Z,4.60
2018-12-13T10:03:09.084Z,4.60
2018-12-13T10:04:12.482Z,4.60
2018-12-13T10:05:15.854Z,4.60
2018-12-13T10:06:19.245Z,4.60
2018-12-13T10:07:22.639Z,4.70
2018-12-13T10:08:26.022Z,4.70
2018-12-13T10:09:29.422Z,4.70
2018-12-13T10:10:32.821Z,4.70
2018-12-13T10:11:36.797Z,4.70
2018-12-13T10:12:40.182Z,4.70
2018-12-13T10:13:43.550Z,4.70
2018-12-13T10:14:46.934Z,4.70
2018-12-13T10:15:50.312Z,4.70
2018-12-13T10:16:53.706Z,4.70
2018-12-13T10:17:57.110Z,4.70
2018-12-13T10:19:00.711Z,4.70
2018-12-13T10:20:04.121Z,4.70
2018-12-13T10:21:07.538Z,4.70
2018-12-13T10:22:11.897Z,4.70
2018-12-13T10:23:15.513Z,4.70
2018-12-13T10:24:18.887Z,4.70
2018-12-13T10:25:22.309Z,4.70
2018-12-13T10:26:25.682Z,4.70
2018-12-13T10:27:29.091Z,4.70
2018-12-13T10:28:32.458Z,4.70
2018-12-13T10:29:35.835Z,4.70
2018-12-13T10:30:39.232Z,4.70
2018-12-13T10:31:42.599Z,4.70
2018-12-13T10:32:46.039Z,4.70
2018-12-13T10:33:49.463Z,4.70
2018-12-13T10:34:52.866Z,4.70
2018-12-13T10:35:56.257Z,4.70
2018-12-13T10:36:59.665Z,4.70
2018-12-13T10:38:03.106Z,4.70
2018-12-13T10:39:08.286Z,4.70
2018-12-13T10:40:11.690Z,4.70
2018-12-13T10:41:15.078Z,4.70
2018-12-13T10:42:18.471Z,4.70
2018-12-13T10:43:21.886Z,4.70
2018-12-13T10:44:30.474Z,4.80
2018-12-13T10:45:33.890Z,4.80
2018-12-13T10:46:37.285Z,4.80
2018-12-13T10:47:40.693Z,4.80
2018-12-13T10:48:44.086Z,4.80
2018-12-13T10:49:47.474Z,4.80
2018-12-13T10:50:50.855Z,4.80
2018-12-13T10:51:54.237Z,4.90
2018-12-13T10:52:57.613Z,4.90
2018-12-13T10:54:00.982Z,4.90
2018-12-13T10:55:04.799Z,4.90
2018-12-13T10:56:08.173Z,4.90
2018-12-13T10:57:11.571Z,4.90
2018-12-13T10:58:14.967Z,4.90
2018-12-13T10:59:18.354Z,4.90
2018-12-13T11:00:27.262Z,4.90
2018-12-13T11:01:36.113Z,4.90
2018-12-13T11:02:55.135Z,4.90
2018-12-13T11:03:58.511Z,4.90
2018-12-13T11:05:02.138Z,4.90
2018-12-13T11:06:05.528Z,4.90
2018-12-13T11:07:08.923Z,4.90
2018-12-13T11:08:12.296Z,4.90
2018-12-13T11:09:15.758Z,4.90
2018-12-13T11:10:25.263Z,4.90
2018-12-13T11:11:24.542Z,4.90
2018-12-13T11:12:27.927Z,4.90
2018-12-13T11:13:31.307Z,4.90
2018-12-13T11:14:34.687Z,4.90
2018-12-13T11:15:38.099Z,4.90
2018-12-13T11:16:41.514Z,4.90
2018-12-13T11:17:44.898Z,4.90
2018-12-13T11:18:48.283Z,4.90
2018-12-13T11:19:51.656Z,4.90
2018-12-13T11:20:55.042Z,4.90
2018-12-13T11:21:58.449Z,4.90
2018-12-13T11:23:01.866Z,5.00
2018-12-13T11:24:05.247Z,5.00
2018-12-13T11:25:08.603Z,5.00
2018-12-13T11:26:12.002Z,5.10
2018-12-13T11:27:26.877Z,5.10
2018-12-13T11:29:09.891Z,5.10
2018-12-13T11:30:24.268Z,5.10
2018-12-13T11:31:27.657Z,5.10
2018-12-13T11:32:31.078Z,5.10
2018-12-13T11:33:34.490Z,5.10
2018-12-13T11:34:37.868Z,5.10
2018-12-13T11:35:41.235Z,5.10
2018-12-13T11:36:44.614Z,5.20
2018-12-13T11:37:48.005Z,5.20
2018-12-13T11:38:51.404Z,5.20
2018-12-13T11:39:54.809Z,5.20
2018-12-13T11:40:58.170Z,5.20
2018-12-13T11:42:01.563Z,5.20
2018-12-13T11:43:04.961Z,5.20
2018-12-13T11:44:08.391Z,5.20
2018-12-13T11:45:11.879Z,5.20
2018-12-13T11:46:15.294Z,5.20
2018-12-13T11:47:18.666Z,5.20
2018-12-13T11:48:22.053Z,5.20
2018-12-13T11:49:25.551Z,5.20
2018-12-13T11:50:28.924Z,5.20
2018-12-13T11:51:32.302Z,5.20
2018-12-13T11:52:35.677Z,5.20
2018-12-13T11:53:39.067Z,5.20
2018-12-13T11:54:43.829Z,5.20
2018-12-13T11:55:47.222Z,5.10
2018-12-13T11:56:50.607Z,5.10
2018-12-13T11:57:54.005Z,5.10
2018-12-13T11:58:57.402Z,5.10
2018-12-13T12:00:00.810Z,5.10
2018-12-13T12:01:04.174Z,5.10
2018-12-13T12:02:07.568Z,5.10
2018-12-13T12:03:10.953Z,5.10
2018-12-13T12:04:14.351Z,5.10
2018-12-13T12:05:17.741Z,5.10
2018-12-13T12:06:21.113Z,5.10
2018-12-13T12:07:24.479Z,5.10
2018-12-13T12:08:27.883Z,5.20
2018-12-13T12:09:31.275Z,5.20
2018-12-13T12:10:34.683Z,5.20
2018-12-13T12:11:38.042Z,5.20
2018-12-13T12:12:41.407Z,5.20
2018-12-13T12:13:44.792Z,5.20
2018-12-13T12:14:48.155Z,5.20
2018-12-13T12:15:51.547Z,5.20
2018-12-13T12:16:54.918Z,5.20
2018-12-13T12:17:58.332Z,5.20
2018-12-13T12:19:01.710Z,5.20
2018-12-13T12:20:05.456Z,5.20
2018-12-13T12:21:08.854Z,5.20
2018-12-13T12:22:12.231Z,5.20
2018-12-13T12:23:15.597Z,5.20
2018-12-13T12:24:18.970Z,5.20
2018-12-13T12:25:22.356Z,5.20
2018-12-13T12:26:25.853Z,5.20
2018-12-13T12:27:29.238Z,5.20
2018-12-13T12:28:32.614Z,5.20
2018-12-13T12:29:35.995Z,5.20
2018-12-13T12:30:39.459Z,5.30
2018-12-13T12:31:43.002Z,5.30
2018-12-13T12:32:46.382Z,5.30
2018-12-13T12:33:49.750Z,5.30
2018-12-13T12:34:53.134Z,5.30
2018-12-13T12:35:56.510Z,5.30
2018-12-13T12:36:59.927Z,5.40
2018-12-13T12:38:03.306Z,5.40
2018-12-13T12:39:07.738Z,5.40
2018-12-13T12:40:11.110Z,5.30
2018-12-13T12:41:14.546Z,5.30
2018-12-13T12:42:17.955Z,5.30
2018-12-13T12:43:21.338Z,5.30
2018-12-13T12:44:27.542Z,5.30
2018-12-13T12:45:30.918Z,5.30
2018-12-13T12:46:34.335Z,5.30
2018-12-13T12:47:37.712Z,5.30
2018-12-13T12:48:41.065Z,5.30
2018-12-13T12:49:44.451Z,5.30
2018-12-13T12:50:47.854Z,5.30
2018-12-13T12:51:51.222Z,5.30
2018-12-13T12:52:54.598Z,5.30
2018-12-13T12:53:57.962Z,5.30
2018-12-13T12:55:01.347Z,5.30
2018-12-13T12:56:04.866Z,5.30
2018-12-13T12:57:08.251Z,5.30
2018-12-13T12:58:11.647Z,5.30
2018-12-13T12:59:15.050Z,5.30
2018-12-13T13:00:18.497Z,5.30
2018-12-13T13:01:21.857Z,5.30
2018-12-13T13:02:25.264Z,5.30
2018-12-13T13:03:28.672Z,5.30
2018-12-13T13:04:32.066Z,5.30
2018-12-13T13:05:35.430Z,5.30
2018-12-13T13:06:38.806Z,5.40
2018-12-13T13:07:42.180Z,5.40
2018-12-13T13:08:45.569Z,5.40
2018-12-13T13:09:48.943Z,5.40
2018-12-13T13:10:52.337Z,5.40
2018-12-13T13:11:55.713Z,5.40
2018-12-13T13:12:59.118Z,5.40
2018-12-13T13:14:02.552Z,5.40
2018-12-13T13:15:05.933Z,5.40
2018-12-13T13:16:09.291Z,5.50
2018-12-13T13:17:12.669Z,5.50
2018-12-13T13:18:16.034Z,5.50
2018-12-13T13:19:19.423Z,5.50
2018-12-13T13:20:22.790Z,5.50
2018-12-13T13:21:26.206Z,5.50
2018-12-13T13:22:29.698Z,5.50
2018-12-13T13:23:33.245Z,5.50
2018-12-13T13:24:36.675Z,5.50
2018-12-13T13:25:40.158Z,5.50
2018-12-13T13:26:43.534Z,5.50
2018-12-13T13:27:46.920Z,5.50
2018-12-13T13:28:50.282Z,5.50
2018-12-13T13:29:53.662Z,5.50
2018-12-13T13:30:57.038Z,5.50
2018-12-13T13:32:00.394Z,5.50
2018-12-13T13:33:03.771Z,5.50
2018-12-13T13:34:07.134Z,5.50
2018-12-13T13:35:11.462Z,5.60
2018-12-13T13:36:14.838Z,5.60
2018-12-13T13:37:18.243Z,5.60
2018-12-13T13:38:21.618Z,5.60
2018-12-13T13:39:31.317Z,5.60
2018-12-13T13:40:30.385Z,5.60
2018-12-13T13:41:33.801Z,5.60
2018-12-13T13:42:37.205Z,5.60
2018-12-13T13:43:40.576Z,5.60
2018-12-13T13:44:44.077Z,5.70
2018-12-13T13:45:47.459Z,5.70
2018-12-13T13:46:50.890Z,5.70
2018-12-13T13:47:54.258Z,5.70
2018-12-13T13:48:57.650Z,5.70
2018-12-13T13:50:01.034Z,5.70
2018-12-13T13:51:04.445Z,5.70
2018-12-13T13:52:08.693Z,5.80
2018-12-13T13:53:12.227Z,5.80
2018-12-13T13:54:15.606Z,5.80
2018-12-13T13:55:19.011Z,5.80
2018-12-13T13:56:22.945Z,5.90
2018-12-13T13:57:26.351Z,5.90
2018-12-13T13:58:29.742Z,5.90
2018-12-13T13:59:33.135Z,5.90
2018-12-13T14:00:36.491Z,5.90
2018-12-13T14:01:39.869Z,6.00
2018-12-13T14:02:43.226Z,6.00
2018-12-13T14:03:46.598Z,6.00
2018-12-13T14:04:49.970Z,6.00
2018-12-13T14:05:53.354Z,6.00
2018-12-13T14:06:56.783Z,6.00
2018-12-13T14:08:00.161Z,6.00